createdAt,value
2019-06-23T00:00:03.271Z,96.10
2019-06-23T00:02:32.629Z,96.00
2019-06-23T00:05:02.113Z,95.90
2019-06-23T00:07:31.488Z,95.90
2019-06-23T00:10:00.899Z,95.90
2019-06-23T00:12:30.321Z,95.90
2019-06-23T00:14:59.715Z,95.80
2019-06-23T00:17:29.134Z,95.80
2019-06-23T00:19:58.540Z,95.90
2019-06-23T00:22:27.972Z,96.10
2019-06-23T00:24:57.383Z,96.10
2019-06-23T00:27:26.924Z,96.20
2019-06-23T00:29:56.303Z,96.30
2019-06-23T00:32:25.684Z,96.20
2019-06-23T00:34:55.073Z,96.30
2019-06-23T00:37:24.462Z,96.40
2019-06-23T00:39:53.877Z,96.20
2019-06-23T00:42:23.276Z,96.20
2019-06-23T00:44:52.692Z,96.10
2019-06-23T00:47:22.086Z,96.10
2019-06-23T00:49:51.498Z,96.30
2019-06-23T00:52:20.900Z,96.40
2019-06-23T00:54:50.288Z,96.50
2019-06-23T00:57:19.676Z,96.50
2019-06-23T00:59:49.131Z,96.50
2019-06-23T01:02:37.419Z,96.50
2019-06-23T01:05:07.057Z,96.50
2019-06-23T01:07:37.276Z,96.50
2019-06-23T01:10:07.002Z,96.50
2019-06-23T01:12:36.376Z,96.50
2019-06-23T01:15:06.800Z,96.50
2019-06-23T01:17:36.212Z,96.50
2019-06-23T01:20:06.562Z,96.60
2019-06-23T01:22:35.984Z,96.60
2019-06-23T01:25:05.396Z,96.70
2019-06-23T01:27:34.784Z,97.00
2019-06-23T01:30:04.534Z,97.10
2019-06-23T01:32:33.920Z,97.30
2019-06-23T01:35:03.331Z,97.30
2019-06-23T01:37:32.766Z,97.40
2019-06-23T01:40:02.207Z,97.50
2019-06-23T01:42:31.647Z,97.50
2019-06-23T01:45:01.034Z,97.50
2019-06-23T01:47:30.460Z,97.60
2019-06-23T01:49:59.871Z,97.50
2019-06-23T01:52:29.323Z,97.60
2019-06-23T01:54:58.687Z,97.50
2019-06-23T01:57:28.125Z,97.50
2019-06-23T01:59:57.573Z,97.40
2019-06-23T02:02:27.010Z,97.40
2019-06-23T02:04:56.456Z,97.40
2019-06-23T02:07:25.854Z,97.40
2019-06-23T02:09:55.285Z,97.40
2019-06-23T02:12:24.673Z,97.30
2019-06-23T02:14:54.095Z,97.20
2019-06-23T02:17:23.508Z,97.10
2019-06-23T02:19:54.487Z,97.10
2019-06-23T02:22:25.487Z,97.10
2019-06-23T02:24:54.897Z,97.00
2019-06-23T02:27:24.292Z,97.00
2019-06-23T02:29:53.709Z,97.00
2019-06-23T02:32:23.105Z,97.00
2019-06-23T02:35:03.940Z,97.00
2019-06-23T02:37:23.588Z,97.00
2019-06-23T02:39:53.012Z,97.00
2019-06-23T02:42:22.408Z,97.00
2019-06-23T02:44:51.800Z,97.00
2019-06-23T02:47:33.465Z,97.00
2019-06-23T02:50:10.256Z,97.00
2019-06-23T02:52:41.573Z,97.00
2019-06-23T02:55:19.437Z,97.20
2019-06-23T02:57:56.755Z,97.30
2019-06-23T03:00:28.653Z,97.40
2019-06-23T03:02:58.035Z,97.50
2019-06-23T03:05:27.451Z,97.60
2019-06-23T03:07:56.818Z,97.60
2019-06-23T03:10:26.544Z,97.60
2019-06-23T03:12:55.941Z,97.60
2019-06-23T03:15:25.419Z,97.50
2019-06-23T03:17:54.773Z,97.40
2019-06-23T03:20:27.220Z,97.30
2019-06-23T03:22:55.315Z,97.10
2019-06-23T03:26:08.743Z,97.10
2019-06-23T03:28:38.154Z,97.00
2019-06-23T03:31:07.741Z,97.00
2019-06-23T03:33:37.065Z,96.90
2019-06-23T03:36:06.883Z,96.80
2019-06-23T03:38:37.498Z,96.80
2019-06-23T03:41:06.894Z,96.70
2019-06-23T03:43:36.408Z,96.60
2019-06-23T03:46:05.798Z,96.60
2019-06-23T03:48:35.357Z,96.50
2019-06-23T03:51:04.735Z,96.40
2019-06-23T03:53:34.186Z,96.40
2019-06-23T03:56:03.576Z,96.40
2019-06-23T03:58:33.179Z,96.40
2019-06-23T04:01:02.687Z,96.40
2019-06-23T04:03:32.135Z,96.40
2019-06-23T04:06:01.880Z,96.30
2019-06-23T04:08:31.248Z,96.30
2019-06-23T04:11:00.672Z,96.30
2019-06-23T04:13:30.114Z,96.20
2019-06-23T04:15:59.507Z,96.10
2019-06-23T04:18:28.895Z,96.00
2019-06-23T04:20:58.399Z,95.90
2019-06-23T04:23:27.792Z,95.80
2019-06-23T04:25:57.267Z,95.70
2019-06-23T04:28:26.672Z,95.70
2019-06-23T04:30:56.335Z,95.80
2019-06-23T04:33:25.742Z,95.80
2019-06-23T04:36:06.956Z,95.70
2019-06-23T04:38:26.214Z,95.70
2019-06-23T04:40:55.681Z,95.60
2019-06-23T04:43:25.110Z,95.40
2019-06-23T04:45:54.488Z,95.40
2019-06-23T04:48:23.931Z,95.40
2019-06-23T04:50:53.359Z,95.20
2019-06-23T04:53:22.877Z,95.10
2019-06-23T04:55:52.267Z,95.00
2019-06-23T04:58:21.693Z,94.90
2019-06-23T05:00:51.194Z,94.80
2019-06-23T05:03:20.668Z,94.70
2019-06-23T05:05:50.121Z,94.60
2019-06-23T05:08:19.527Z,94.60
2019-06-23T05:10:48.962Z,94.50
2019-06-23T05:13:18.370Z,94.30
2019-06-23T05:15:47.821Z,94.00
2019-06-23T05:18:17.216Z,93.70
2019-06-23T05:20:46.638Z,93.40
2019-06-23T05:23:16.042Z,93.20
2019-06-23T05:25:45.468Z,93.00
2019-06-23T05:28:14.857Z,92.90
2019-06-23T05:30:44.288Z,92.80
2019-06-23T05:33:13.677Z,92.80
2019-06-23T05:35:43.088Z,92.70
2019-06-23T05:38:12.509Z,92.70
2019-06-23T05:40:41.929Z,92.70
2019-06-23T05:43:11.428Z,92.80
2019-06-23T05:45:40.830Z,92.70
2019-06-23T05:48:10.243Z,92.70
2019-06-23T05:50:39.669Z,92.70
2019-06-23T05:53:09.072Z,92.80
2019-06-23T05:55:38.732Z,92.80
2019-06-23T05:58:08.125Z,92.80
2019-06-23T06:00:37.507Z,92.80
2019-06-23T06:03:07.019Z,92.80
2019-06-23T06:05:36.404Z,92.70
2019-06-23T06:08:05.846Z,92.50
2019-06-23T06:10:35.245Z,92.40
2019-06-23T06:13:04.688Z,92.40
2019-06-23T06:15:34.200Z,92.30
2019-06-23T06:18:03.617Z,92.40
2019-06-23T06:20:33.050Z,92.30
2019-06-23T06:23:02.489Z,92.20
2019-06-23T06:25:31.924Z,92.30
2019-06-23T06:28:01.340Z,92.20
2019-06-23T06:30:30.753Z,92.10
2019-06-23T06:33:00.152Z,91.80
2019-06-23T06:35:29.623Z,91.70
2019-06-23T06:37:59.046Z,91.50
2019-06-23T06:40:28.463Z,91.40
2019-06-23T06:42:57.864Z,91.30
2019-06-23T06:45:27.277Z,91.20
2019-06-23T06:47:56.668Z,90.90
2019-06-23T06:50:26.110Z,90.60
2019-06-23T06:52:55.540Z,90.10
2019-06-23T06:55:24.920Z,89.30
2019-06-23T06:57:54.307Z,88.40
2019-06-23T07:00:23.732Z,88.10
2019-06-23T07:02:53.195Z,87.90
2019-06-23T07:05:22.648Z,88.10
2019-06-23T07:07:52.076Z,88.40
2019-06-23T07:10:21.656Z,88.30
2019-06-23T07:12:51.067Z,87.50
2019-06-23T07:15:20.479Z,86.90
2019-06-23T07:17:49.877Z,86.30
2019-06-23T07:20:19.284Z,85.80
2019-06-23T07:22:48.686Z,85.20
2019-06-23T07:25:18.188Z,85.00
2019-06-23T07:27:47.639Z,84.60
2019-06-23T07:31:00.350Z,84.30
2019-06-23T07:33:29.707Z,84.20
2019-06-23T07:35:59.133Z,83.70
2019-06-23T07:38:28.547Z,83.00
2019-06-23T07:40:57.928Z,82.90
2019-06-23T07:43:27.331Z,82.50
2019-06-23T07:45:56.722Z,82.50
2019-06-23T07:48:26.211Z,82.70
2019-06-23T07:50:55.672Z,81.90
2019-06-23T07:53:25.067Z,82.30
2019-06-23T07:55:54.521Z,83.00
2019-06-23T07:58:23.888Z,83.20
2019-06-23T08:00:53.289Z,82.60
2019-06-23T08:03:22.777Z,82.00
2019-06-23T08:05:52.211Z,82.10
2019-06-23T08:08:21.660Z,81.80
2019-06-23T08:10:51.054Z,81.90
2019-06-23T08:13:20.436Z,82.10
2019-06-23T08:16:05.394Z,83.60
2019-06-23T08:18:23.402Z,83.30
2019-06-23T08:20:52.856Z,83.30
2019-06-23T08:23:22.390Z,83.70
2019-06-23T08:25:52.089Z,84.30
2019-06-23T08:28:21.514Z,84.80
2019-06-23T08:30:50.912Z,84.90
2019-06-23T08:33:20.293Z,84.70
2019-06-23T08:35:49.704Z,84.60
2019-06-23T08:38:19.328Z,84.50
2019-06-23T08:40:48.685Z,84.50
2019-06-23T08:43:18.088Z,83.90
2019-06-23T08:45:47.487Z,83.10
2019-06-23T08:48:25.583Z,81.90
2019-06-23T08:50:55.116Z,80.60
2019-06-23T08:53:24.551Z,79.70
2019-06-23T08:55:53.989Z,79.00
2019-06-23T08:58:23.360Z,78.50
2019-06-23T09:00:52.765Z,77.80
2019-06-23T09:03:22.280Z,77.20
2019-06-23T09:05:51.832Z,77.20
2019-06-23T09:08:33.295Z,77.10
2019-06-23T09:10:52.294Z,76.60
2019-06-23T09:13:21.717Z,75.80
2019-06-23T09:15:51.129Z,75.50
2019-06-23T09:18:20.539Z,75.50
2019-06-23T09:20:49.988Z,75.80
2019-06-23T09:23:19.461Z,76.00
2019-06-23T09:25:48.823Z,76.00
2019-06-23T09:28:18.251Z,76.10
2019-06-23T09:30:47.625Z,75.80
2019-06-23T09:33:17.028Z,75.40
2019-06-23T09:35:46.424Z,74.60
2019-06-23T09:38:15.840Z,74.30
2019-06-23T09:40:45.235Z,74.10
2019-06-23T09:43:14.691Z,74.30
2019-06-23T09:45:44.321Z,74.50
2019-06-23T09:48:13.733Z,74.10
2019-06-23T09:50:43.264Z,73.90
2019-06-23T09:53:12.675Z,73.80
2019-06-23T09:55:42.116Z,74.10
2019-06-23T09:58:11.555Z,74.30
2019-06-23T10:00:41.088Z,74.40
2019-06-23T10:03:10.558Z,73.90
2019-06-23T10:05:40.008Z,73.00
2019-06-23T10:08:09.566Z,72.20
2019-06-23T10:10:39.000Z,72.00
2019-06-23T10:13:08.539Z,72.10
2019-06-23T10:15:38.021Z,72.10
2019-06-23T10:18:07.399Z,72.20
2019-06-23T10:20:36.806Z,72.10
2019-06-23T10:23:06.489Z,71.80
2019-06-23T10:25:37.529Z,71.40
2019-06-23T10:28:07.868Z,70.90
2019-06-23T10:30:37.768Z,70.90
2019-06-23T10:33:07.218Z,71.30
2019-06-23T10:35:36.622Z,71.40
2019-06-23T10:38:06.116Z,70.80
2019-06-23T10:40:35.587Z,70.30
2019-06-23T10:43:05.016Z,69.70
2019-06-23T10:45:34.466Z,69.60
2019-06-23T10:48:03.805Z,69.40
2019-06-23T10:50:33.225Z,69.10
2019-06-23T10:53:02.636Z,68.90
2019-06-23T10:55:32.047Z,68.60
2019-06-23T10:58:01.410Z,68.20
2019-06-23T11:00:30.792Z,67.40
2019-06-23T11:03:00.231Z,66.90
2019-06-23T11:05:30.056Z,67.00
2019-06-23T11:07:59.522Z,67.30
2019-06-23T11:10:28.913Z,67.50
2019-06-23T11:12:58.326Z,67.60
2019-06-23T11:15:27.756Z,68.20
2019-06-23T11:17:57.280Z,67.90
2019-06-23T11:20:26.664Z,67.70
2019-06-23T11:22:56.082Z,67.50
2019-06-23T11:25:25.463Z,67.40
2019-06-23T11:27:54.918Z,67.10
2019-06-23T11:30:24.283Z,66.80
2019-06-23T11:32:53.688Z,66.20
2019-06-23T11:35:23.100Z,66.10
2019-06-23T11:37:52.488Z,66.40
2019-06-23T11:40:21.923Z,66.90
2019-06-23T11:42:51.324Z,67.60
2019-06-23T11:45:20.755Z,67.90
2019-06-23T11:47:50.187Z,67.60
2019-06-23T11:50:19.672Z,67.10
2019-06-23T11:52:49.141Z,66.30
2019-06-23T11:55:18.564Z,65.60
2019-06-23T11:57:47.992Z,65.40
2019-06-23T12:00:17.885Z,64.90
2019-06-23T12:02:47.389Z,64.50
2019-06-23T12:05:17.009Z,64.50
2019-06-23T12:07:46.467Z,64.80
2019-06-23T12:10:16.714Z,65.20
2019-06-23T12:12:46.176Z,65.80
2019-06-23T12:15:16.367Z,66.30
2019-06-23T12:17:46.172Z,66.60
2019-06-23T12:20:15.726Z,66.90
2019-06-23T12:22:45.180Z,67.10
2019-06-23T12:25:14.691Z,67.30
2019-06-23T12:27:44.137Z,67.20
2019-06-23T12:30:13.494Z,66.90
2019-06-23T12:32:42.883Z,66.50
2019-06-23T12:35:12.398Z,66.60
2019-06-23T12:37:41.783Z,67.40
2019-06-23T12:40:23.789Z,68.40
2019-06-23T12:42:42.419Z,69.30
2019-06-23T12:45:12.861Z,70.20
2019-06-23T12:47:42.235Z,71.10
2019-06-23T12:50:11.956Z,71.40
2019-06-23T12:52:41.382Z,71.60
2019-06-23T12:55:10.981Z,72.00
2019-06-23T12:57:40.416Z,72.50
2019-06-23T13:00:10.624Z,73.20
2019-06-23T13:02:40.055Z,73.90
2019-06-23T13:05:09.901Z,75.00
2019-06-23T13:07:39.425Z,75.80
2019-06-23T13:10:10.531Z,76.70
2019-06-23T13:12:39.939Z,77.50
2019-06-23T13:15:09.682Z,77.60
2019-06-23T13:17:38.996Z,78.30
2019-06-23T13:20:08.923Z,78.50
2019-06-23T13:22:41.500Z,78.00
2019-06-23T13:25:09.595Z,77.40
2019-06-23T13:27:38.987Z,76.70
2019-06-23T13:30:09.361Z,76.10
2019-06-23T13:32:38.772Z,75.40
2019-06-23T13:35:08.476Z,74.70
2019-06-23T13:37:37.884Z,74.00
2019-06-23T13:40:07.555Z,73.70
2019-06-23T13:42:36.970Z,72.70
2019-06-23T13:45:06.645Z,71.30
2019-06-23T13:47:36.089Z,70.20
2019-06-23T13:50:06.603Z,69.00
2019-06-23T13:52:36.009Z,68.10
2019-06-23T13:55:05.510Z,67.00
2019-06-23T13:57:34.920Z,66.50
2019-06-23T14:00:05.181Z,65.60
2019-06-23T14:02:34.624Z,64.70
2019-06-23T14:05:04.168Z,63.60
2019-06-23T14:07:33.653Z,62.20
2019-06-23T14:10:03.100Z,61.40
2019-06-23T14:12:32.512Z,60.30
2019-06-23T14:15:01.915Z,59.30
2019-06-23T14:17:31.309Z,58.60
2019-06-23T14:20:00.696Z,58.50
2019-06-23T14:22:30.085Z,58.40
2019-06-23T14:24:59.507Z,58.30
2019-06-23T14:27:28.928Z,58.40
2019-06-23T14:29:58.342Z,58.70
2019-06-23T14:32:27.771Z,59.00
2019-06-23T14:34:57.154Z,59.30
2019-06-23T14:37:26.575Z,59.70
2019-06-23T14:39:55.958Z,60.20
2019-06-23T14:42:25.355Z,60.60
2019-06-23T14:44:54.796Z,60.90
2019-06-23T14:47:24.214Z,61.50
2019-06-23T14:49:53.623Z,62.40
2019-06-23T14:52:23.023Z,62.80
2019-06-23T14:54:52.501Z,63.10
2019-06-23T14:57:21.905Z,63.40
2019-06-23T14:59:51.331Z,63.30
2019-06-23T15:02:20.748Z,63.10
2019-06-23T15:04:50.164Z,63.10
2019-06-23T15:07:19.618Z,62.70
2019-06-23T15:09:49.189Z,62.40
2019-06-23T15:12:18.662Z,61.90
2019-06-23T15:14:48.178Z,61.40
2019-06-23T15:17:17.600Z,61.00
2019-06-23T15:19:47.056Z,60.60
2019-06-23T15:22:16.424Z,59.90
2019-06-23T15:24:45.841Z,59.30
2019-06-23T15:27:15.246Z,59.10
2019-06-23T15:29:44.647Z,58.90
2019-06-23T15:32:13.971Z,59.00
2019-06-23T15:34:43.420Z,58.80
2019-06-23T15:37:12.836Z,59.00
2019-06-23T15:39:42.223Z,59.40
2019-06-23T15:42:11.831Z,59.50
2019-06-23T15:44:41.640Z,60.20
2019-06-23T15:47:11.029Z,58.30
2019-06-23T15:49:40.445Z,56.80
2019-06-23T15:52:09.830Z,56.30
2019-06-23T15:54:39.236Z,56.20
2019-06-23T15:57:08.612Z,55.90
2019-06-23T15:59:38.060Z,55.80
2019-06-23T16:02:08.241Z,53.90
2019-06-23T16:04:37.703Z,51.10
2019-06-23T16:07:07.105Z,49.40
2019-06-23T16:09:36.563Z,49.50
2019-06-23T16:12:16.647Z,49.90
2019-06-23T16:14:37.091Z,50.40
2019-06-23T16:17:06.684Z,51.50
2019-06-23T16:19:36.063Z,53.00
2019-06-23T16:22:05.471Z,54.30
2019-06-23T16:24:36.958Z,53.30
2019-06-23T16:27:05.929Z,50.90
2019-06-23T16:29:35.332Z,48.30
2019-06-23T16:32:04.764Z,46.20
2019-06-23T16:34:34.168Z,43.40
2019-06-23T16:37:03.601Z,42.00
2019-06-23T16:39:33.144Z,41.30
2019-06-23T16:42:02.553Z,40.40
2019-06-23T16:44:32.246Z,39.80
2019-06-23T16:47:01.622Z,39.30
2019-06-23T16:49:31.000Z,38.30
2019-06-23T16:52:00.413Z,37.40
2019-06-23T16:54:29.804Z,36.80
2019-06-23T16:56:59.201Z,36.00
2019-06-23T16:59:28.662Z,35.30
2019-06-23T17:01:58.111Z,34.70
2019-06-23T17:04:27.498Z,34.30
2019-06-23T17:06:56.910Z,33.70
2019-06-23T17:09:26.402Z,33.30
2019-06-23T17:11:55.858Z,33.00
2019-06-23T17:14:25.294Z,33.00
2019-06-23T17:16:54.671Z,33.10
2019-06-23T17:19:24.080Z,33.20
2019-06-23T17:21:53.471Z,33.10
2019-06-23T17:24:22.935Z,33.00
2019-06-23T17:26:52.462Z,32.70
2019-06-23T17:29:21.900Z,32.50
2019-06-23T17:31:51.374Z,32.70
2019-06-23T17:34:20.936Z,33.00
2019-06-23T17:36:50.359Z,33.30
2019-06-23T17:39:19.793Z,34.00
2019-06-23T17:41:49.251Z,35.60
2019-06-23T17:44:18.636Z,37.90
2019-06-23T17:46:48.199Z,40.50
2019-06-23T17:49:17.604Z,43.10
2019-06-23T17:51:47.197Z,45.30
2019-06-23T17:54:16.572Z,47.50
2019-06-23T17:56:46.117Z,49.50
2019-06-23T17:59:15.548Z,51.20
2019-06-23T18:01:44.972Z,52.60
2019-06-23T18:04:14.534Z,53.90
2019-06-23T18:06:46.905Z,55.00
2019-06-23T18:09:15.059Z,56.40
2019-06-23T18:11:44.512Z,57.50
2019-06-23T18:14:13.947Z,58.40
2019-06-23T18:16:43.344Z,59.30
2019-06-23T18:19:13.205Z,60.20
2019-06-23T18:21:42.946Z,61.40
2019-06-23T18:24:12.299Z,62.40
2019-06-23T18:26:42.889Z,63.50
2019-06-23T18:29:12.248Z,64.80
2019-06-23T18:31:41.663Z,65.70
2019-06-23T18:34:11.058Z,66.60
2019-06-23T18:36:40.451Z,67.50
2019-06-23T18:39:09.773Z,68.30
2019-06-23T18:41:39.590Z,69.10
2019-06-23T18:44:08.992Z,69.80
2019-06-23T18:46:39.593Z,70.40
2019-06-23T18:49:09.096Z,71.00
2019-06-23T18:51:38.556Z,71.60
2019-06-23T18:54:08.002Z,72.20
2019-06-23T18:56:37.384Z,72.80
2019-06-23T18:59:06.940Z,73.30
2019-06-23T19:01:36.353Z,73.80
2019-06-23T19:04:05.819Z,74.20
2019-06-23T19:06:35.208Z,74.80
2019-06-23T19:09:05.898Z,75.10
2019-06-23T19:11:35.357Z,75.60
2019-06-23T19:14:05.149Z,76.10
2019-06-23T19:16:34.539Z,76.50
2019-06-23T19:19:03.938Z,76.90
2019-06-23T19:21:33.396Z,77.50
2019-06-23T19:24:02.778Z,77.90
2019-06-23T19:26:32.207Z,78.40
2019-06-23T19:29:01.583Z,78.70
2019-06-23T19:31:31.085Z,79.20
2019-06-23T19:34:00.509Z,79.70
2019-06-23T19:36:29.929Z,80.00
2019-06-23T19:38:59.340Z,80.20
2019-06-23T19:41:28.832Z,80.50
2019-06-23T19:44:09.634Z,80.90
2019-06-23T19:46:29.308Z,81.30
2019-06-23T19:48:58.771Z,81.70
2019-06-23T19:51:28.256Z,82.10
2019-06-23T19:54:10.560Z,82.40
2019-06-23T19:56:28.796Z,82.80
2019-06-23T19:58:58.225Z,83.20
2019-06-23T20:01:27.612Z,83.40
2019-06-23T20:03:57.008Z,83.70
2019-06-23T20:06:26.424Z,83.90
2019-06-23T20:08:55.816Z,84.20
2019-06-23T20:11:25.332Z,84.40
2019-06-23T20:13:54.711Z,84.70
2019-06-23T20:16:24.158Z,84.90
2019-06-23T20:18:53.547Z,85.10
2019-06-23T20:21:23.048Z,85.30
2019-06-23T20:23:52.437Z,85.50
2019-06-23T20:26:21.860Z,85.80
2019-06-23T20:28:51.625Z,86.00
2019-06-23T20:31:21.003Z,86.30
2019-06-23T20:33:50.449Z,86.70
2019-06-23T20:36:19.841Z,87.00
2019-06-23T20:38:49.553Z,87.30
2019-06-23T20:41:18.924Z,87.80
2019-06-23T20:43:48.404Z,88.00
2019-06-23T20:46:17.828Z,88.30
2019-06-23T20:48:47.236Z,88.50
2019-06-23T20:51:16.619Z,88.80
2019-06-23T20:53:46.145Z,88.90
2019-06-23T20:56:15.552Z,89.10
2019-06-23T20:58:44.969Z,89.30
2019-06-23T21:01:14.428Z,89.60
2019-06-23T21:03:43.852Z,89.90
2019-06-23T21:06:22.554Z,90.00
2019-06-23T21:08:44.360Z,90.10
2019-06-23T21:11:13.802Z,90.20
2019-06-23T21:13:43.273Z,90.20
2019-06-23T21:16:12.680Z,90.20
2019-06-23T21:18:42.103Z,90.30
2019-06-23T21:21:11.536Z,90.30
2019-06-23T21:23:40.918Z,90.40
2019-06-23T21:26:13.487Z,90.50
2019-06-23T21:28:41.383Z,90.60
2019-06-23T21:31:10.897Z,90.60
2019-06-23T21:33:40.280Z,90.70
2019-06-23T21:36:09.729Z,90.90
2019-06-23T21:38:39.137Z,91.00
2019-06-23T21:41:08.552Z,91.20
2019-06-23T21:43:38.097Z,91.40
2019-06-23T21:46:07.498Z,91.50
2019-06-23T21:48:36.921Z,91.60
2019-06-23T21:51:06.325Z,91.80
2019-06-23T21:53:35.735Z,91.90
2019-06-23T21:56:05.423Z,92.00
2019-06-23T21:58:34.900Z,92.00
2019-06-23T22:01:07.702Z,92.00
2019-06-23T22:03:37.099Z,92.00
2019-06-23T22:06:06.556Z,92.00
2019-06-23T22:08:36.004Z,92.00
2019-06-23T22:11:05.440Z,92.10
2019-06-23T22:13:34.876Z,92.10
2019-06-23T22:16:04.287Z,92.10
2019-06-23T22:18:33.669Z,92.10
2019-06-23T22:21:03.140Z,92.20
2019-06-23T22:23:32.565Z,92.20
2019-06-23T22:26:01.993Z,92.30
2019-06-23T22:28:31.418Z,92.30
2019-06-23T22:31:00.827Z,92.40
2019-06-23T22:33:30.251Z,92.30
2019-06-23T22:35:59.635Z,92.40
2019-06-23T22:38:29.032Z,92.40
2019-06-23T22:40:58.440Z,92.40
2019-06-23T22:43:29.118Z,92.40
2019-06-23T22:45:58.728Z,92.50
2019-06-23T22:48:28.180Z,92.50
2019-06-23T22:50:57.743Z,92.60
2019-06-23T22:53:27.143Z,92.70
2019-06-23T22:55:56.582Z,92.70
2019-06-23T22:58:25.965Z,92.70
2019-06-23T23:00:55.411Z,92.80
2019-06-23T23:03:24.805Z,92.80
2019-06-23T23:05:54.198Z,92.80
2019-06-23T23:08:23.595Z,92.80
2019-06-23T23:10:53.025Z,92.80
2019-06-23T23:13:22.636Z,92.80
2019-06-23T23:16:03.294Z,92.80
2019-06-23T23:18:23.115Z,92.90
2019-06-23T23:20:52.516Z,92.90
2019-06-23T23:23:21.901Z,92.90
2019-06-23T23:25:51.340Z,92.90
2019-06-23T23:28:20.735Z,92.90
2019-06-23T23:30:50.242Z,93.00
2019-06-23T23:33:19.615Z,93.00
2019-06-23T23:35:49.016Z,93.00
2019-06-23T23:38:18.423Z,93.00
2019-06-23T23:40:47.840Z,93.10
2019-06-23T23:43:17.269Z,93.30
2019-06-23T23:45:46.651Z,93.40
2019-06-23T23:48:16.063Z,93.50
2019-06-23T23:50:45.434Z,93.50
2019-06-23T23:53:14.881Z,93.80
2019-06-23T23:55:44.285Z,93.60
2019-06-23T23:58:13.676Z,93.60
